sensor_id;sensor_type;location;lat;lon;timestamp;P1;durP1;ratioP1;P2;durP2;ratioP2
12719;SDS011;6424;48.520;11.228;2023-10-19T00:01:33;15.73;;;14.13;;
12719;SDS011;6424;48.520;11.228;2023-10-19T00:04:18;16.73;;;13.90;;
12719;SDS011;6424;48.520;11.228;2023-10-19T00:07:03;14.10;;;12.60;;
12719;SDS011;6424;48.520;11.228;2023-10-19T00:09:50;17.43;;;14.07;;
12719;SDS011;6424;48.520;11.228;2023-10-19T00:12:37;16.30;;;14.47;;
12719;SDS011;6424;48.520;11.228;2023-10-19T00:15:22;16.37;;;14.40;;
12719;SDS011;6424;48.520;11.228;2023-10-19T00:18:09;16.20;;;14.40;;
12719;SDS011;6424;48.520;11.228;2023-10-19T00:21:00;17.83;;;14.30;;
12719;SDS011;6424;48.520;11.228;2023-10-19T00:24:03;17.20;;;14.27;;
12719;SDS011;6424;48.520;11.228;2023-10-19T00:26:49;15.17;;;13.20;;
12719;SDS011;6424;48.520;11.228;2023-10-19T00:29:37;19.30;;;15.37;;
12719;SDS011;6424;48.520;11.228;2023-10-19T00:32:24;15.57;;;13.37;;
12719;SDS011;6424;48.520;11.228;2023-10-19T00:35:08;14.67;;;12.77;;
12719;SDS011;6424;48.520;11.228;2023-10-19T00:38:11;16.50;;;14.00;;
12719;SDS011;6424;48.520;11.228;2023-10-19T00:41:10;16.43;;;14.60;;
12719;SDS011;6424;48.520;11.228;2023-10-19T00:43:54;18.27;;;14.10;;
12719;SDS011;6424;48.520;11.228;2023-10-19T00:46:46;14.93;;;13.27;;
12719;SDS011;6424;48.520;11.228;2023-10-19T00:49:39;17.60;;;14.73;;
12719;SDS011;6424;48.520;11.228;2023-10-19T00:52:24;17.50;;;15.13;;
12719;SDS011;6424;48.520;11.228;2023-10-19T00:55:08;17.17;;;15.17;;
12719;SDS011;6424;48.520;11.228;2023-10-19T00:57:56;18.67;;;15.13;;
12719;SDS011;6424;48.520;11.228;2023-10-19T01:00:41;16.40;;;14.70;;
12719;SDS011;6424;48.520;11.228;2023-10-19T01:03:27;15.93;;;14.23;;
12719;SDS011;6424;48.520;11.228;2023-10-19T01:06:16;16.73;;;13.97;;
12719;SDS011;6424;48.520;11.228;2023-10-19T01:09:02;16.60;;;14.13;;
12719;SDS011;6424;48.520;11.228;2023-10-19T01:11:47;17.70;;;15.53;;
12719;SDS011;6424;48.520;11.228;2023-10-19T01:14:33;15.73;;;14.10;;
12719;SDS011;6424;48.520;11.228;2023-10-19T01:17:18;18.53;;;14.67;;
12719;SDS011;6424;48.520;11.228;2023-10-19T01:20:03;14.33;;;12.83;;
12719;SDS011;6424;48.520;11.228;2023-10-19T01:23:05;16.40;;;14.53;;
12719;SDS011;6424;48.520;11.228;2023-10-19T01:25:57;15.63;;;14.03;;
12719;SDS011;6424;48.520;11.228;2023-10-19T01:28:42;18.10;;;15.23;;
12719;SDS011;6424;48.520;11.228;2023-10-19T01:31:27;17.53;;;15.00;;
12719;SDS011;6424;48.520;11.228;2023-10-19T01:34:11;17.30;;;15.20;;
12719;SDS011;6424;48.520;11.228;2023-10-19T01:36:55;19.57;;;15.47;;
12719;SDS011;6424;48.520;11.228;2023-10-19T01:39:39;16.30;;;14.57;;
12719;SDS011;6424;48.520;11.228;2023-10-19T01:42:26;17.07;;;14.70;;
12719;SDS011;6424;48.520;11.228;2023-10-19T01:45:10;17.10;;;14.63;;
12719;SDS011;6424;48.520;11.228;2023-10-19T01:47:55;15.80;;;14.20;;
12719;SDS011;6424;48.520;11.228;2023-10-19T01:50:39;21.27;;;14.83;;
12719;SDS011;6424;48.520;11.228;2023-10-19T01:53:25;16.50;;;14.27;;
12719;SDS011;6424;48.520;11.228;2023-10-19T01:56:10;16.40;;;14.40;;
12719;SDS011;6424;48.520;11.228;2023-10-19T01:58:58;16.70;;;14.77;;
12719;SDS011;6424;48.520;11.228;2023-10-19T02:01:43;15.57;;;13.93;;
12719;SDS011;6424;48.520;11.228;2023-10-19T02:04:29;16.23;;;14.00;;
12719;SDS011;6424;48.520;11.228;2023-10-19T02:07:18;16.93;;;14.00;;
12719;SDS011;6424;48.520;11.228;2023-10-19T02:10:03;19.67;;;15.10;;
12719;SDS011;6424;48.520;11.228;2023-10-19T02:12:51;18.83;;;14.63;;
12719;SDS011;6424;48.520;11.228;2023-10-19T02:15:39;17.17;;;14.93;;
12719;SDS011;6424;48.520;11.228;2023-10-19T02:18:23;17.73;;;14.73;;
12719;SDS011;6424;48.520;11.228;2023-10-19T02:21:07;17.30;;;14.87;;
12719;SDS011;6424;48.520;11.228;2023-10-19T02:23:55;17.37;;;15.37;;
12719;SDS011;6424;48.520;11.228;2023-10-19T02:26:43;16.73;;;14.93;;
12719;SDS011;6424;48.520;11.228;2023-10-19T02:29:30;15.97;;;14.10;;
12719;SDS011;6424;48.520;11.228;2023-10-19T02:32:15;18.17;;;15.43;;
12719;SDS011;6424;48.520;11.228;2023-10-19T02:35:02;18.30;;;15.33;;
12719;SDS011;6424;48.520;11.228;2023-10-19T02:37:47;20.30;;;16.87;;
12719;SDS011;6424;48.520;11.228;2023-10-19T02:40:31;20.13;;;16.93;;
12719;SDS011;6424;48.520;11.228;2023-10-19T02:43:15;17.57;;;15.70;;
12719;SDS011;6424;48.520;11.228;2023-10-19T02:46:00;18.90;;;16.53;;
12719;SDS011;6424;48.520;11.228;2023-10-19T02:48:46;19.10;;;17.10;;
12719;SDS011;6424;48.520;11.228;2023-10-19T02:51:33;19.33;;;16.93;;
12719;SDS011;6424;48.520;11.228;2023-10-19T02:54:19;19.17;;;17.00;;
12719;SDS011;6424;48.520;11.228;2023-10-19T02:57:04;19.73;;;17.63;;
12719;SDS011;6424;48.520;11.228;2023-10-19T02:59:53;20.17;;;17.43;;
12719;SDS011;6424;48.520;11.228;2023-10-19T03:02:38;22.13;;;18.17;;
12719;SDS011;6424;48.520;11.228;2023-10-19T03:05:22;22.73;;;18.33;;
12719;SDS011;6424;48.520;11.228;2023-10-19T03:08:09;21.23;;;18.50;;
12719;SDS011;6424;48.520;11.228;2023-10-19T03:10:53;20.43;;;17.73;;
12719;SDS011;6424;48.520;11.228;2023-10-19T03:13:47;18.97;;;16.93;;
12719;SDS011;6424;48.520;11.228;2023-10-19T03:16:34;21.07;;;17.50;;
12719;SDS011;6424;48.520;11.228;2023-10-19T03:19:24;20.00;;;17.87;;
12719;SDS011;6424;48.520;11.228;2023-10-19T03:22:09;20.30;;;16.80;;
12719;SDS011;6424;48.520;11.228;2023-10-19T03:24:55;20.40;;;17.30;;
12719;SDS011;6424;48.520;11.228;2023-10-19T03:27:58;19.73;;;17.60;;
12719;SDS011;6424;48.520;11.228;2023-10-19T03:30:50;21.00;;;18.77;;
12719;SDS011;6424;48.520;11.228;2023-10-19T03:33:34;21.47;;;17.13;;
12719;SDS011;6424;48.520;11.228;2023-10-19T03:36:23;23.83;;;19.57;;
12719;SDS011;6424;48.520;11.228;2023-10-19T03:39:09;20.17;;;17.57;;
12719;SDS011;6424;48.520;11.228;2023-10-19T03:41:57;20.17;;;17.93;;
12719;SDS011;6424;48.520;11.228;2023-10-19T03:44:41;21.80;;;17.97;;
12719;SDS011;6424;48.520;11.228;2023-10-19T03:47:32;20.43;;;18.00;;
12719;SDS011;6424;48.520;11.228;2023-10-19T03:50:20;23.73;;;18.90;;
12719;SDS011;6424;48.520;11.228;2023-10-19T03:53:04;20.30;;;18.07;;
12719;SDS011;6424;48.520;11.228;2023-10-19T03:55:48;26.73;;;21.20;;
12719;SDS011;6424;48.520;11.228;2023-10-19T03:58:38;26.00;;;20.60;;
12719;SDS011;6424;48.520;11.228;2023-10-19T04:01:25;25.77;;;19.97;;
12719;SDS011;6424;48.520;11.228;2023-10-19T04:04:12;24.23;;;19.27;;
12719;SDS011;6424;48.520;11.228;2023-10-19T04:06:57;24.63;;;19.60;;
12719;SDS011;6424;48.520;11.228;2023-10-19T04:09:41;22.80;;;19.83;;
12719;SDS011;6424;48.520;11.228;2023-10-19T04:12:43;23.53;;;20.03;;
12719;SDS011;6424;48.520;11.228;2023-10-19T04:15:28;24.40;;;21.80;;
12719;SDS011;6424;48.520;11.228;2023-10-19T04:18:19;25.43;;;20.70;;
12719;SDS011;6424;48.520;11.228;2023-10-19T04:21:03;25.73;;;21.10;;
12719;SDS011;6424;48.520;11.228;2023-10-19T04:23:48;25.47;;;21.03;;
12719;SDS011;6424;48.520;11.228;2023-10-19T04:26:32;24.53;;;20.37;;
12719;SDS011;6424;48.520;11.228;2023-10-19T04:29:23;24.77;;;20.40;;
12719;SDS011;6424;48.520;11.228;2023-10-19T04:32:11;25.17;;;20.07;;
12719;SDS011;6424;48.520;11.228;2023-10-19T04:34:58;23.77;;;19.27;;
12719;SDS011;6424;48.520;11.228;2023-10-19T04:37:42;25.10;;;21.27;;
12719;SDS011;6424;48.520;11.228;2023-10-19T04:40:26;26.57;;;21.53;;
12719;SDS011;6424;48.520;11.228;2023-10-19T04:43:10;22.07;;;19.43;;
12719;SDS011;6424;48.520;11.228;2023-10-19T04:45:54;24.30;;;21.17;;
12719;SDS011;6424;48.520;11.228;2023-10-19T04:48:39;23.60;;;20.83;;
12719;SDS011;6424;48.520;11.228;2023-10-19T04:51:24;21.13;;;18.93;;
12719;SDS011;6424;48.520;11.228;2023-10-19T04:54:08;20.23;;;17.70;;
12719;SDS011;6424;48.520;11.228;2023-10-19T04:56:53;26.13;;;19.77;;
12719;SDS011;6424;48.520;11.228;2023-10-19T04:59:39;26.07;;;21.17;;
12719;SDS011;6424;48.520;11.228;2023-10-19T05:02:23;22.67;;;19.47;;
12719;SDS011;6424;48.520;11.228;2023-10-19T05:05:08;24.60;;;20.60;;
12719;SDS011;6424;48.520;11.228;2023-10-19T05:07:52;24.90;;;20.20;;
12719;SDS011;6424;48.520;11.228;2023-10-19T05:10:36;26.33;;;20.00;;
12719;SDS011;6424;48.520;11.228;2023-10-19T05:13:21;24.60;;;20.50;;
12719;SDS011;6424;48.520;11.228;2023-10-19T05:16:07;21.07;;;17.60;;
12719;SDS011;6424;48.520;11.228;2023-10-19T05:18:51;25.13;;;19.93;;
12719;SDS011;6424;48.520;11.228;2023-10-19T05:21:36;25.43;;;20.83;;
12719;SDS011;6424;48.520;11.228;2023-10-19T05:24:21;22.80;;;19.47;;
12719;SDS011;6424;48.520;11.228;2023-10-19T05:27:05;24.03;;;19.87;;
12719;SDS011;6424;48.520;11.228;2023-10-19T05:29:49;26.83;;;20.80;;
12719;SDS011;6424;48.520;11.228;2023-10-19T05:32:34;24.00;;;19.90;;
12719;SDS011;6424;48.520;11.228;2023-10-19T05:35:19;26.33;;;20.63;;
12719;SDS011;6424;48.520;11.228;2023-10-19T05:38:07;24.77;;;19.90;;
12719;SDS011;6424;48.520;11.228;2023-10-19T05:40:52;24.53;;;20.03;;
12719;SDS011;6424;48.520;11.228;2023-10-19T05:43:37;23.60;;;19.57;;
12719;SDS011;6424;48.520;11.228;2023-10-19T05:46:22;25.73;;;21.03;;
12719;SDS011;6424;48.520;11.228;2023-10-19T05:49:08;26.00;;;21.07;;
12719;SDS011;6424;48.520;11.228;2023-10-19T05:51:53;23.30;;;20.30;;
12719;SDS011;6424;48.520;11.228;2023-10-19T05:54:38;23.50;;;19.60;;
12719;SDS011;6424;48.520;11.228;2023-10-19T05:57:22;20.93;;;18.77;;
12719;SDS011;6424;48.520;11.228;2023-10-19T06:00:08;24.80;;;19.00;;
12719;SDS011;6424;48.520;11.228;2023-10-19T06:02:56;22.10;;;19.23;;
12719;SDS011;6424;48.520;11.228;2023-10-19T06:05:44;25.60;;;20.10;;
12719;SDS011;6424;48.520;11.228;2023-10-19T06:08:28;23.53;;;20.77;;
12719;SDS011;6424;48.520;11.228;2023-10-19T06:11:12;22.63;;;18.70;;
12719;SDS011;6424;48.520;11.228;2023-10-19T06:13:57;21.33;;;18.60;;
12719;SDS011;6424;48.520;11.228;2023-10-19T06:16:42;20.63;;;17.77;;
12719;SDS011;6424;48.520;11.228;2023-10-19T06:19:27;21.93;;;18.57;;
12719;SDS011;6424;48.520;11.228;2023-10-19T06:22:11;21.53;;;19.13;;
12719;SDS011;6424;48.520;11.228;2023-10-19T06:24:56;20.77;;;18.10;;
12719;SDS011;6424;48.520;11.228;2023-10-19T06:27:40;22.87;;;17.80;;
12719;SDS011;6424;48.520;11.228;2023-10-19T06:30:25;19.97;;;17.83;;
12719;SDS011;6424;48.520;11.228;2023-10-19T06:33:10;20.07;;;17.87;;
12719;SDS011;6424;48.520;11.228;2023-10-19T06:35:54;19.77;;;17.30;;
12719;SDS011;6424;48.520;11.228;2023-10-19T06:38:38;21.70;;;16.80;;
12719;SDS011;6424;48.520;11.228;2023-10-19T06:41:23;20.77;;;16.93;;
12719;SDS011;6424;48.520;11.228;2023-10-19T06:44:08;22.40;;;17.27;;
12719;SDS011;6424;48.520;11.228;2023-10-19T06:46:53;19.77;;;16.43;;
12719;SDS011;6424;48.520;11.228;2023-10-19T06:49:37;19.37;;;17.40;;
12719;SDS011;6424;48.520;11.228;2023-10-19T06:52:22;18.10;;;16.20;;
12719;SDS011;6424;48.520;11.228;2023-10-19T06:55:07;17.63;;;15.27;;
12719;SDS011;6424;48.520;11.228;2023-10-19T06:57:57;18.13;;;16.13;;
12719;SDS011;6424;48.520;11.228;2023-10-19T07:00:42;18.27;;;14.60;;
12719;SDS011;6424;48.520;11.228;2023-10-19T07:03:27;18.33;;;16.33;;
12719;SDS011;6424;48.520;11.228;2023-10-19T07:06:14;19.00;;;16.27;;
12719;SDS011;6424;48.520;11.228;2023-10-19T07:08:58;18.50;;;16.53;;
12719;SDS011;6424;48.520;11.228;2023-10-19T07:11:42;17.17;;;15.37;;
12719;SDS011;6424;48.520;11.228;2023-10-19T07:14:28;19.23;;;15.70;;
12719;SDS011;6424;48.520;11.228;2023-10-19T07:17:14;17.03;;;15.23;;
12719;SDS011;6424;48.520;11.228;2023-10-19T07:19:58;17.53;;;14.00;;
12719;SDS011;6424;48.520;11.228;2023-10-19T07:22:43;20.03;;;15.27;;
12719;SDS011;6424;48.520;11.228;2023-10-19T07:25:29;18.43;;;15.07;;
12719;SDS011;6424;48.520;11.228;2023-10-19T07:28:15;16.93;;;15.07;;
12719;SDS011;6424;48.520;11.228;2023-10-19T07:30:59;13.87;;;12.43;;
12719;SDS011;6424;48.520;11.228;2023-10-19T07:33:47;14.47;;;12.63;;
12719;SDS011;6424;48.520;11.228;2023-10-19T07:36:33;15.00;;;13.10;;
12719;SDS011;6424;48.520;11.228;2023-10-19T07:39:20;14.80;;;13.20;;
12719;SDS011;6424;48.520;11.228;2023-10-19T07:42:06;16.33;;;12.80;;
12719;SDS011;6424;48.520;11.228;2023-10-19T07:44:51;13.33;;;12.03;;
12719;SDS011;6424;48.520;11.228;2023-10-19T07:47:35;14.07;;;12.67;;
12719;SDS011;6424;48.520;11.228;2023-10-19T07:50:20;14.23;;;12.73;;
12719;SDS011;6424;48.520;11.228;2023-10-19T07:53:06;14.03;;;12.43;;
12719;SDS011;6424;48.520;11.228;2023-10-19T07:55:50;19.93;;;12.57;;
12719;SDS011;6424;48.520;11.228;2023-10-19T07:58:36;14.83;;;12.20;;
12719;SDS011;6424;48.520;11.228;2023-10-19T08:01:20;14.13;;;12.47;;
12719;SDS011;6424;48.520;11.228;2023-10-19T08:04:04;13.83;;;12.43;;
12719;SDS011;6424;48.520;11.228;2023-10-19T08:06:49;13.17;;;11.77;;
12719;SDS011;6424;48.520;11.228;2023-10-19T08:09:34;13.10;;;11.67;;
12719;SDS011;6424;48.520;11.228;2023-10-19T08:12:18;14.03;;;12.13;;
12719;SDS011;6424;48.520;11.228;2023-10-19T08:15:02;13.97;;;12.33;;
12719;SDS011;6424;48.520;11.228;2023-10-19T08:17:48;14.60;;;12.53;;
12719;SDS011;6424;48.520;11.228;2023-10-19T08:20:34;12.90;;;11.50;;
12719;SDS011;6424;48.520;11.228;2023-10-19T08:23:21;12.90;;;11.60;;
12719;SDS011;6424;48.520;11.228;2023-10-19T08:26:10;12.73;;;11.40;;
12719;SDS011;6424;48.520;11.228;2023-10-19T08:28:54;13.47;;;12.23;;
12719;SDS011;6424;48.520;11.228;2023-10-19T08:31:40;13.93;;;12.23;;
12719;SDS011;6424;48.520;11.228;2023-10-19T08:34:25;13.03;;;11.73;;
12719;SDS011;6424;48.520;11.228;2023-10-19T08:37:09;13.40;;;11.90;;
12719;SDS011;6424;48.520;11.228;2023-10-19T08:39:54;14.33;;;11.83;;
12719;SDS011;6424;48.520;11.228;2023-10-19T08:42:39;13.23;;;11.83;;
12719;SDS011;6424;48.520;11.228;2023-10-19T08:45:24;13.60;;;11.80;;
12719;SDS011;6424;48.520;11.228;2023-10-19T08:48:09;12.70;;;11.43;;
12719;SDS011;6424;48.520;11.228;2023-10-19T08:50:54;12.43;;;11.23;;
12719;SDS011;6424;48.520;11.228;2023-10-19T08:53:40;14.43;;;12.93;;
12719;SDS011;6424;48.520;11.228;2023-10-19T08:56:25;16.77;;;15.00;;
12719;SDS011;6424;48.520;11.228;2023-10-19T08:59:09;15.77;;;13.93;;
12719;SDS011;6424;48.520;11.228;2023-10-19T09:02:02;19.40;;;16.87;;
12719;SDS011;6424;48.520;11.228;2023-10-19T09:04:47;16.70;;;14.77;;
12719;SDS011;6424;48.520;11.228;2023-10-19T09:07:32;16.63;;;13.90;;
12719;SDS011;6424;48.520;11.228;2023-10-19T09:10:18;16.20;;;14.47;;
12719;SDS011;6424;48.520;11.228;2023-10-19T09:13:03;16.80;;;14.53;;
12719;SDS011;6424;48.520;11.228;2023-10-19T09:15:51;16.63;;;14.63;;
12719;SDS011;6424;48.520;11.228;2023-10-19T09:18:39;17.03;;;15.33;;
12719;SDS011;6424;48.520;11.228;2023-10-19T09:21:23;15.77;;;14.20;;
12719;SDS011;6424;48.520;11.228;2023-10-19T09:24:08;19.03;;;16.77;;
12719;SDS011;6424;48.520;11.228;2023-10-19T09:26:52;16.87;;;15.17;;
12719;SDS011;6424;48.520;11.228;2023-10-19T09:29:37;18.10;;;15.70;;
12719;SDS011;6424;48.520;11.228;2023-10-19T09:32:22;16.57;;;14.87;;
12719;SDS011;6424;48.520;11.228;2023-10-19T09:35:06;19.20;;;15.53;;
12719;SDS011;6424;48.520;11.228;2023-10-19T09:37:54;17.83;;;15.37;;
12719;SDS011;6424;48.520;11.228;2023-10-19T09:40:40;17.33;;;15.43;;
12719;SDS011;6424;48.520;11.228;2023-10-19T09:49:13;16.33;;;14.63;;
12719;SDS011;6424;48.520;11.228;2023-10-19T09:51:58;18.20;;;16.40;;
12719;SDS011;6424;48.520;11.228;2023-10-19T09:54:54;20.60;;;18.50;;
12719;SDS011;6424;48.520;11.228;2023-10-19T10:00:38;21.50;;;18.10;;
12719;SDS011;6424;48.520;11.228;2023-10-19T10:09:35;32.97;;;29.03;;
12719;SDS011;6424;48.520;11.228;2023-10-19T10:12:27;26.57;;;23.77;;
12719;SDS011;6424;48.520;11.228;2023-10-19T10:15:12;19.10;;;17.17;;
12719;SDS011;6424;48.520;11.228;2023-10-19T10:18:11;18.10;;;16.17;;
12719;SDS011;6424;48.520;11.228;2023-10-19T10:23:57;23.27;;;20.17;;
12719;SDS011;6424;48.520;11.228;2023-10-19T10:26:59;30.87;;;25.80;;
12719;SDS011;6424;48.520;11.228;2023-10-19T10:29:59;21.73;;;17.90;;
12719;SDS011;6424;48.520;11.228;2023-10-19T10:32:50;16.47;;;14.23;;
12719;SDS011;6424;48.520;11.228;2023-10-19T10:38:22;17.43;;;13.50;;
12719;SDS011;6424;48.520;11.228;2023-10-19T10:41:07;14.90;;;12.40;;
12719;SDS011;6424;48.520;11.228;2023-10-19T10:43:55;14.00;;;12.57;;
12719;SDS011;6424;48.520;11.228;2023-10-19T10:46:40;14.53;;;13.03;;
12719;SDS011;6424;48.520;11.228;2023-10-19T10:49:25;15.30;;;12.23;;
12719;SDS011;6424;48.520;11.228;2023-10-19T10:52:10;16.13;;;12.87;;
12719;SDS011;6424;48.520;11.228;2023-10-19T10:54:58;13.07;;;11.50;;
12719;SDS011;6424;48.520;11.228;2023-10-19T10:57:50;12.97;;;11.20;;
12719;SDS011;6424;48.520;11.228;2023-10-19T11:00:41;13.53;;;11.53;;
12719;SDS011;6424;48.520;11.228;2023-10-19T11:03:35;13.93;;;12.33;;
12719;SDS011;6424;48.520;11.228;2023-10-19T11:06:20;12.07;;;10.87;;
12719;SDS011;6424;48.520;11.228;2023-10-19T11:09:09;12.53;;;11.33;;
12719;SDS011;6424;48.520;11.228;2023-10-19T11:11:54;12.73;;;11.27;;
12719;SDS011;6424;48.520;11.228;2023-10-19T11:14:52;11.53;;;10.43;;
12719;SDS011;6424;48.520;11.228;2023-10-19T11:17:43;13.07;;;10.70;;
12719;SDS011;6424;48.520;11.228;2023-10-19T11:20:29;12.70;;;11.40;;
12719;SDS011;6424;48.520;11.228;2023-10-19T11:23:13;12.37;;;10.67;;
12719;SDS011;6424;48.520;11.228;2023-10-19T11:25:59;10.93;;;9.87;;
12719;SDS011;6424;48.520;11.228;2023-10-19T11:28:43;11.70;;;10.50;;
12719;SDS011;6424;48.520;11.228;2023-10-19T11:31:38;13.00;;;11.10;;
12719;SDS011;6424;48.520;11.228;2023-10-19T11:34:23;11.37;;;10.17;;
12719;SDS011;6424;48.520;11.228;2023-10-19T11:37:07;12.00;;;10.80;;
12719;SDS011;6424;48.520;11.228;2023-10-19T11:39:51;11.70;;;10.50;;
12719;SDS011;6424;48.520;11.228;2023-10-19T11:42:36;11.30;;;10.13;;
12719;SDS011;6424;48.520;11.228;2023-10-19T11:45:20;11.50;;;10.00;;
12719;SDS011;6424;48.520;11.228;2023-10-19T11:48:04;11.67;;;10.07;;
12719;SDS011;6424;48.520;11.228;2023-10-19T11:50:49;13.07;;;11.40;;
12719;SDS011;6424;48.520;11.228;2023-10-19T11:53:34;12.67;;;11.37;;
12719;SDS011;6424;48.520;11.228;2023-10-19T11:56:20;13.43;;;12.10;;
12719;SDS011;6424;48.520;11.228;2023-10-19T11:59:04;14.33;;;12.80;;
12719;SDS011;6424;48.520;11.228;2023-10-19T12:01:50;16.80;;;15.00;;
12719;SDS011;6424;48.520;11.228;2023-10-19T12:04:34;16.13;;;14.57;;
12719;SDS011;6424;48.520;11.228;2023-10-19T12:07:19;19.33;;;16.13;;
12719;SDS011;6424;48.520;11.228;2023-10-19T12:10:04;18.00;;;16.20;;
12719;SDS011;6424;48.520;11.228;2023-10-19T12:12:53;18.83;;;17.03;;
12719;SDS011;6424;48.520;11.228;2023-10-19T12:15:37;18.70;;;16.87;;
12719;SDS011;6424;48.520;11.228;2023-10-19T12:18:21;18.33;;;16.50;;
12719;SDS011;6424;48.520;11.228;2023-10-19T12:21:05;18.03;;;16.23;;
12719;SDS011;6424;48.520;11.228;2023-10-19T12:23:55;18.93;;;17.03;;
12719;SDS011;6424;48.520;11.228;2023-10-19T12:26:40;18.67;;;16.87;;
12719;SDS011;6424;48.520;11.228;2023-10-19T12:29:25;18.30;;;16.40;;
12719;SDS011;6424;48.520;11.228;2023-10-19T12:32:10;19.27;;;17.37;;
12719;SDS011;6424;48.520;11.228;2023-10-19T12:34:56;18.23;;;16.43;;
12719;SDS011;6424;48.520;11.228;2023-10-19T12:37:41;18.90;;;16.97;;
12719;SDS011;6424;48.520;11.228;2023-10-19T12:40:34;20.17;;;18.17;;
12719;SDS011;6424;48.520;11.228;2023-10-19T12:43:19;19.47;;;17.43;;
12719;SDS011;6424;48.520;11.228;2023-10-19T12:46:06;19.33;;;17.43;;
12719;SDS011;6424;48.520;11.228;2023-10-19T12:48:52;18.50;;;16.70;;
12719;SDS011;6424;48.520;11.228;2023-10-19T12:51:39;18.80;;;16.77;;
12719;SDS011;6424;48.520;11.228;2023-10-19T12:54:25;20.80;;;18.77;;
12719;SDS011;6424;48.520;11.228;2023-10-19T12:57:12;20.07;;;17.77;;
12719;SDS011;6424;48.520;11.228;2023-10-19T12:59:56;20.93;;;18.73;;
12719;SDS011;6424;48.520;11.228;2023-10-19T13:02:40;20.93;;;18.83;;
12719;SDS011;6424;48.520;11.228;2023-10-19T13:05:25;23.10;;;19.07;;
12719;SDS011;6424;48.520;11.228;2023-10-19T13:08:16;22.50;;;18.87;;
12719;SDS011;6424;48.520;11.228;2023-10-19T13:11:00;23.50;;;19.83;;
12719;SDS011;6424;48.520;11.228;2023-10-19T13:13:45;21.90;;;19.60;;
12719;SDS011;6424;48.520;11.228;2023-10-19T13:16:29;20.50;;;18.33;;
12719;SDS011;6424;48.520;11.228;2023-10-19T13:19:14;20.97;;;18.90;;
12719;SDS011;6424;48.520;11.228;2023-10-19T13:22:03;22.27;;;19.63;;
12719;SDS011;6424;48.520;11.228;2023-10-19T13:24:49;21.10;;;18.90;;
12719;SDS011;6424;48.520;11.228;2023-10-19T13:27:33;23.60;;;19.83;;
12719;SDS011;6424;48.520;11.228;2023-10-19T13:30:17;20.93;;;18.70;;
12719;SDS011;6424;48.520;11.228;2023-10-19T13:33:01;19.37;;;17.27;;
12719;SDS011;6424;48.520;11.228;2023-10-19T13:35:54;20.87;;;18.63;;
12719;SDS011;6424;48.520;11.228;2023-10-19T13:38:38;21.00;;;18.80;;
12719;SDS011;6424;48.520;11.228;2023-10-19T13:41:22;20.23;;;18.17;;
12719;SDS011;6424;48.520;11.228;2023-10-19T13:44:06;20.87;;;18.80;;
12719;SDS011;6424;48.520;11.228;2023-10-19T13:46:51;20.33;;;18.33;;
12719;SDS011;6424;48.520;11.228;2023-10-19T13:49:37;20.87;;;18.67;;
12719;SDS011;6424;48.520;11.228;2023-10-19T13:52:21;21.40;;;19.13;;
12719;SDS011;6424;48.520;11.228;2023-10-19T13:55:06;21.60;;;19.30;;
12719;SDS011;6424;48.520;11.228;2023-10-19T13:57:51;21.70;;;19.40;;
12719;SDS011;6424;48.520;11.228;2023-10-19T14:00:36;21.17;;;19.17;;
12719;SDS011;6424;48.520;11.228;2023-10-19T14:03:23;22.43;;;19.43;;
12719;SDS011;6424;48.520;11.228;2023-10-19T14:06:14;18.87;;;17.07;;
12719;SDS011;6424;48.520;11.228;2023-10-19T14:08:59;21.50;;;18.87;;
12719;SDS011;6424;48.520;11.228;2023-10-19T14:11:43;18.40;;;16.60;;
12719;SDS011;6424;48.520;11.228;2023-10-19T14:14:31;19.80;;;17.70;;
12719;SDS011;6424;48.520;11.228;2023-10-19T14:17:15;19.57;;;17.77;;
12719;SDS011;6424;48.520;11.228;2023-10-19T14:19:59;20.87;;;18.70;;
12719;SDS011;6424;48.520;11.228;2023-10-19T14:22:44;19.77;;;17.87;;
12719;SDS011;6424;48.520;11.228;2023-10-19T14:25:30;20.60;;;18.57;;
12719;SDS011;6424;48.520;11.228;2023-10-19T14:28:15;21.90;;;19.80;;
12719;SDS011;6424;48.520;11.228;2023-10-19T14:30:59;23.20;;;19.90;;
12719;SDS011;6424;48.520;11.228;2023-10-19T14:33:44;22.90;;;20.60;;
12719;SDS011;6424;48.520;11.228;2023-10-19T14:36:28;22.43;;;20.10;;
12719;SDS011;6424;48.520;11.228;2023-10-19T14:39:13;22.17;;;19.87;;
12719;SDS011;6424;48.520;11.228;2023-10-19T14:42:00;20.80;;;18.50;;
12719;SDS011;6424;48.520;11.228;2023-10-19T14:44:44;20.43;;;18.30;;
12719;SDS011;6424;48.520;11.228;2023-10-19T14:47:28;21.10;;;19.03;;
12719;SDS011;6424;48.520;11.228;2023-10-19T14:50:13;21.90;;;19.70;;
12719;SDS011;6424;48.520;11.228;2023-10-19T14:52:57;22.83;;;20.57;;
12719;SDS011;6424;48.520;11.228;2023-10-19T14:55:46;24.13;;;21.83;;
12719;SDS011;6424;48.520;11.228;2023-10-19T14:58:30;23.43;;;21.13;;
12719;SDS011;6424;48.520;11.228;2023-10-19T15:01:21;21.33;;;19.27;;
12719;SDS011;6424;48.520;11.228;2023-10-19T15:04:09;22.97;;;20.67;;
12719;SDS011;6424;48.520;11.228;2023-10-19T15:06:54;23.40;;;20.93;;
12719;SDS011;6424;48.520;11.228;2023-10-19T15:09:38;23.83;;;21.33;;
12719;SDS011;6424;48.520;11.228;2023-10-19T15:12:22;23.17;;;20.77;;
12719;SDS011;6424;48.520;11.228;2023-10-19T15:15:08;22.63;;;20.43;;
12719;SDS011;6424;48.520;11.228;2023-10-19T15:17:54;23.40;;;20.90;;
12719;SDS011;6424;48.520;11.228;2023-10-19T15:20:38;23.63;;;21.23;;
12719;SDS011;6424;48.520;11.228;2023-10-19T15:23:23;21.30;;;19.23;;
12719;SDS011;6424;48.520;11.228;2023-10-19T15:26:09;25.47;;;20.60;;
12719;SDS011;6424;48.520;11.228;2023-10-19T15:29:00;22.47;;;20.20;;
12719;SDS011;6424;48.520;11.228;2023-10-19T15:31:44;24.33;;;21.87;;
12719;SDS011;6424;48.520;11.228;2023-10-19T15:34:28;23.17;;;20.67;;
12719;SDS011;6424;48.520;11.228;2023-10-19T15:37:18;25.37;;;22.63;;
12719;SDS011;6424;48.520;11.228;2023-10-19T15:40:04;24.23;;;21.83;;
12719;SDS011;6424;48.520;11.228;2023-10-19T15:42:49;22.83;;;20.43;;
12719;SDS011;6424;48.520;11.228;2023-10-19T15:45:37;26.03;;;23.33;;
12719;SDS011;6424;48.520;11.228;2023-10-19T15:48:23;26.43;;;23.73;;
12719;SDS011;6424;48.520;11.228;2023-10-19T15:51:07;26.67;;;22.30;;
12719;SDS011;6424;48.520;11.228;2023-10-19T15:53:52;25.67;;;23.13;;
12719;SDS011;6424;48.520;11.228;2023-10-19T15:56:36;27.47;;;24.67;;
12719;SDS011;6424;48.520;11.228;2023-10-19T15:59:21;27.77;;;25.00;;
12719;SDS011;6424;48.520;11.228;2023-10-19T16:02:05;29.20;;;25.80;;
12719;SDS011;6424;48.520;11.228;2023-10-19T16:04:49;31.20;;;25.83;;
12719;SDS011;6424;48.520;11.228;2023-10-19T16:07:33;28.07;;;25.07;;
12719;SDS011;6424;48.520;11.228;2023-10-19T16:10:19;25.43;;;22.77;;
12719;SDS011;6424;48.520;11.228;2023-10-19T16:13:04;27.23;;;24.43;;
12719;SDS011;6424;48.520;11.228;2023-10-19T16:15:48;23.70;;;21.20;;
12719;SDS011;6424;48.520;11.228;2023-10-19T16:18:33;28.13;;;23.37;;
12719;SDS011;6424;48.520;11.228;2023-10-19T16:21:17;24.40;;;21.90;;
12719;SDS011;6424;48.520;11.228;2023-10-19T16:24:03;28.63;;;25.53;;
12719;SDS011;6424;48.520;11.228;2023-10-19T16:26:47;27.27;;;24.43;;
12719;SDS011;6424;48.520;11.228;2023-10-19T16:29:32;30.97;;;27.10;;
12719;SDS011;6424;48.520;11.228;2023-10-19T16:32:17;26.80;;;23.80;;